sensor_id;sensor_type;location;lat;lon;timestamp;P1;durP1;ratioP1;P2;durP2;ratioP2
29246;SDS011;16272;48.188;9.964;2023-04-03T00:00:22;12.27;;;5.03;;
29246;SDS011;16272;48.188;9.964;2023-04-03T00:02:50;14.47;;;5.07;;
29246;SDS011;16272;48.188;9.964;2023-04-03T00:05:15;11.45;;;4.45;;
29246;SDS011;16272;48.188;9.964;2023-04-03T00:07:40;11.77;;;4.17;;
29246;SDS011;16272;48.188;9.964;2023-04-03T00:10:06;12.80;;;5.13;;
29246;SDS011;16272;48.188;9.964;2023-04-03T00:12:32;11.43;;;4.55;;
29246;SDS011;16272;48.188;9.964;2023-04-03T00:14:57;12.37;;;5.00;;
29246;SDS011;16272;48.188;9.964;2023-04-03T00:17:22;12.23;;;5.17;;
29246;SDS011;16272;48.188;9.964;2023-04-03T00:19:47;12.97;;;4.77;;
29246;SDS011;16272;48.188;9.964;2023-04-03T00:22:13;12.37;;;5.03;;
29246;SDS011;16272;48.188;9.964;2023-04-03T00:24:38;13.48;;;5.28;;
29246;SDS011;16272;48.188;9.964;2023-04-03T00:27:03;11.23;;;4.07;;
29246;SDS011;16272;48.188;9.964;2023-04-03T00:29:31;11.60;;;5.10;;
29246;SDS011;16272;48.188;9.964;2023-04-03T00:31:56;12.38;;;5.07;;
29246;SDS011;16272;48.188;9.964;2023-04-03T00:34:21;13.10;;;4.97;;
29246;SDS011;16272;48.188;9.964;2023-04-03T00:36:49;11.67;;;5.07;;
29246;SDS011;16272;48.188;9.964;2023-04-03T00:39:14;11.70;;;5.28;;
29246;SDS011;16272;48.188;9.964;2023-04-03T00:41:42;12.00;;;4.67;;
29246;SDS011;16272;48.188;9.964;2023-04-03T00:44:20;12.18;;;4.50;;
29246;SDS011;16272;48.188;9.964;2023-04-03T00:46:46;10.35;;;4.45;;
29246;SDS011;16272;48.188;9.964;2023-04-03T00:49:11;10.87;;;4.60;;
29246;SDS011;16272;48.188;9.964;2023-04-03T00:51:37;12.40;;;4.37;;
29246;SDS011;16272;48.188;9.964;2023-04-03T00:54:03;10.67;;;4.40;;
29246;SDS011;16272;48.188;9.964;2023-04-03T00:56:36;11.05;;;4.15;;
29246;SDS011;16272;48.188;9.964;2023-04-03T00:59:06;11.47;;;4.33;;
29246;SDS011;16272;48.188;9.964;2023-04-03T01:01:35;11.82;;;4.55;;
29246;SDS011;16272;48.188;9.964;2023-04-03T01:04:02;10.77;;;3.92;;
29246;SDS011;16272;48.188;9.964;2023-04-03T01:06:29;10.32;;;3.75;;
29246;SDS011;16272;48.188;9.964;2023-04-03T01:08:57;10.07;;;4.15;;
29246;SDS011;16272;48.188;9.964;2023-04-03T01:11:24;10.37;;;3.87;;
29246;SDS011;16272;48.188;9.964;2023-04-03T01:13:50;7.57;;;2.80;;
29246;SDS011;16272;48.188;9.964;2023-04-03T01:16:15;9.93;;;3.73;;
29246;SDS011;16272;48.188;9.964;2023-04-03T01:18:41;9.77;;;4.00;;
29246;SDS011;16272;48.188;9.964;2023-04-03T01:26:40;11.15;;;4.32;;
29246;SDS011;16272;48.188;9.964;2023-04-03T01:29:06;11.95;;;4.65;;
29246;SDS011;16272;48.188;9.964;2023-04-03T01:34:00;10.35;;;3.40;;
29246;SDS011;16272;48.188;9.964;2023-04-03T01:36:27;10.77;;;4.10;;
29246;SDS011;16272;48.188;9.964;2023-04-03T01:38:55;9.63;;;4.10;;
29246;SDS011;16272;48.188;9.964;2023-04-03T01:41:22;9.75;;;3.95;;
29246;SDS011;16272;48.188;9.964;2023-04-03T01:43:48;11.15;;;4.40;;
29246;SDS011;16272;48.188;9.964;2023-04-03T01:46:14;10.83;;;4.20;;
29246;SDS011;16272;48.188;9.964;2023-04-03T01:48:40;10.75;;;4.13;;
29246;SDS011;16272;48.188;9.964;2023-04-03T01:51:05;10.23;;;4.10;;
29246;SDS011;16272;48.188;9.964;2023-04-03T01:53:31;11.35;;;4.22;;
29246;SDS011;16272;48.188;9.964;2023-04-03T01:55:56;10.17;;;3.80;;
29246;SDS011;16272;48.188;9.964;2023-04-03T01:58:21;11.03;;;3.90;;
29246;SDS011;16272;48.188;9.964;2023-04-03T02:00:47;10.17;;;3.90;;
29246;SDS011;16272;48.188;9.964;2023-04-03T02:03:13;10.43;;;4.07;;
29246;SDS011;16272;48.188;9.964;2023-04-03T02:05:39;10.00;;;3.70;;
29246;SDS011;16272;48.188;9.964;2023-04-03T02:08:04;11.93;;;4.32;;
29246;SDS011;16272;48.188;9.964;2023-04-03T02:10:30;10.32;;;4.32;;
29246;SDS011;16272;48.188;9.964;2023-04-03T02:12:59;10.37;;;4.40;;
29246;SDS011;16272;48.188;9.964;2023-04-03T02:15:24;10.68;;;4.47;;
29246;SDS011;16272;48.188;9.964;2023-04-03T02:17:50;10.70;;;4.30;;
29246;SDS011;16272;48.188;9.964;2023-04-03T02:20:15;10.50;;;4.03;;
29246;SDS011;16272;48.188;9.964;2023-04-03T02:22:41;9.40;;;3.60;;
29246;SDS011;16272;48.188;9.964;2023-04-03T02:25:06;10.27;;;3.70;;
29246;SDS011;16272;48.188;9.964;2023-04-03T02:27:32;9.47;;;3.93;;
29246;SDS011;16272;48.188;9.964;2023-04-03T02:29:57;11.33;;;3.87;;
29246;SDS011;16272;48.188;9.964;2023-04-03T02:32:22;9.27;;;3.70;;
29246;SDS011;16272;48.188;9.964;2023-04-03T02:34:48;10.00;;;4.20;;
29246;SDS011;16272;48.188;9.964;2023-04-03T02:37:13;9.47;;;3.53;;
29246;SDS011;16272;48.188;9.964;2023-04-03T02:39:38;8.87;;;3.53;;
29246;SDS011;16272;48.188;9.964;2023-04-03T02:42:04;10.30;;;3.90;;
29246;SDS011;16272;48.188;9.964;2023-04-03T02:44:31;10.77;;;4.27;;
29246;SDS011;16272;48.188;9.964;2023-04-03T02:46:58;10.43;;;3.95;;
29246;SDS011;16272;48.188;9.964;2023-04-03T02:49:23;9.55;;;3.97;;
29246;SDS011;16272;48.188;9.964;2023-04-03T02:51:48;9.50;;;3.83;;
29246;SDS011;16272;48.188;9.964;2023-04-03T02:54:14;10.37;;;3.50;;
29246;SDS011;16272;48.188;9.964;2023-04-03T02:56:39;10.07;;;3.80;;
29246;SDS011;16272;48.188;9.964;2023-04-03T02:59:05;10.13;;;3.67;;
29246;SDS011;16272;48.188;9.964;2023-04-03T03:01:31;10.38;;;3.70;;
29246;SDS011;16272;48.188;9.964;2023-04-03T03:03:57;11.23;;;3.90;;
29246;SDS011;16272;48.188;9.964;2023-04-03T03:06:23;9.25;;;3.50;;
29246;SDS011;16272;48.188;9.964;2023-04-03T03:08:49;9.93;;;3.77;;
29246;SDS011;16272;48.188;9.964;2023-04-03T03:11:14;9.80;;;3.37;;
29246;SDS011;16272;48.188;9.964;2023-04-03T03:13:40;9.73;;;3.80;;
29246;SDS011;16272;48.188;9.964;2023-04-03T03:16:05;9.57;;;4.03;;
29246;SDS011;16272;48.188;9.964;2023-04-03T03:18:31;10.13;;;3.57;;
29246;SDS011;16272;48.188;9.964;2023-04-03T03:20:58;8.65;;;3.30;;
29246;SDS011;16272;48.188;9.964;2023-04-03T03:23:25;9.82;;;3.78;;
29246;SDS011;16272;48.188;9.964;2023-04-03T03:25:56;10.18;;;3.80;;
29246;SDS011;16272;48.188;9.964;2023-04-03T03:28:22;9.65;;;3.80;;
29246;SDS011;16272;48.188;9.964;2023-04-03T03:30:48;11.20;;;4.20;;
29246;SDS011;16272;48.188;9.964;2023-04-03T03:33:13;9.47;;;3.57;;
29246;SDS011;16272;48.188;9.964;2023-04-03T03:35:38;10.63;;;3.57;;
29246;SDS011;16272;48.188;9.964;2023-04-03T03:38:04;10.60;;;3.67;;
29246;SDS011;16272;48.188;9.964;2023-04-03T03:40:29;9.97;;;3.83;;
29246;SDS011;16272;48.188;9.964;2023-04-03T03:42:54;8.93;;;3.33;;
29246;SDS011;16272;48.188;9.964;2023-04-03T03:45:20;9.53;;;3.87;;
29246;SDS011;16272;48.188;9.964;2023-04-03T03:47:45;9.90;;;3.13;;
29246;SDS011;16272;48.188;9.964;2023-04-03T03:50:10;9.53;;;3.40;;
29246;SDS011;16272;48.188;9.964;2023-04-03T03:52:37;8.73;;;3.50;;
29246;SDS011;16272;48.188;9.964;2023-04-03T03:55:02;9.68;;;3.63;;
29246;SDS011;16272;48.188;9.964;2023-04-03T03:57:27;9.10;;;3.40;;
29246;SDS011;16272;48.188;9.964;2023-04-03T03:59:53;9.48;;;3.50;;
29246;SDS011;16272;48.188;9.964;2023-04-03T04:02:20;9.10;;;3.23;;
29246;SDS011;16272;48.188;9.964;2023-04-03T04:04:45;10.45;;;3.60;;
29246;SDS011;16272;48.188;9.964;2023-04-03T04:07:11;10.80;;;4.00;;
29246;SDS011;16272;48.188;9.964;2023-04-03T04:09:36;8.52;;;3.38;;
29246;SDS011;16272;48.188;9.964;2023-04-03T04:12:02;10.10;;;3.23;;
29246;SDS011;16272;48.188;9.964;2023-04-03T04:14:27;8.67;;;3.33;;
29246;SDS011;16272;48.188;9.964;2023-04-03T04:16:52;9.37;;;3.57;;
29246;SDS011;16272;48.188;9.964;2023-04-03T04:19:18;9.13;;;3.30;;
29246;SDS011;16272;48.188;9.964;2023-04-03T04:21:44;8.47;;;2.93;;
29246;SDS011;16272;48.188;9.964;2023-04-03T04:24:10;10.20;;;3.10;;
29246;SDS011;16272;48.188;9.964;2023-04-03T04:26:36;9.52;;;3.22;;
29246;SDS011;16272;48.188;9.964;2023-04-03T04:29:08;9.70;;;3.10;;
29246;SDS011;16272;48.188;9.964;2023-04-03T04:31:35;8.50;;;2.90;;
29246;SDS011;16272;48.188;9.964;2023-04-03T04:34:00;9.35;;;3.00;;
29246;SDS011;16272;48.188;9.964;2023-04-03T04:36:27;8.00;;;2.97;;
29246;SDS011;16272;48.188;9.964;2023-04-03T04:38:52;7.95;;;3.03;;
29246;SDS011;16272;48.188;9.964;2023-04-03T04:41:19;8.63;;;2.80;;
29246;SDS011;16272;48.188;9.964;2023-04-03T04:43:47;9.68;;;2.88;;
29246;SDS011;16272;48.188;9.964;2023-04-03T04:46:13;8.20;;;2.83;;
29246;SDS011;16272;48.188;9.964;2023-04-03T04:48:39;9.00;;;3.20;;
29246;SDS011;16272;48.188;9.964;2023-04-03T04:51:05;8.10;;;2.85;;
29246;SDS011;16272;48.188;9.964;2023-04-03T04:53:31;9.15;;;2.75;;
29246;SDS011;16272;48.188;9.964;2023-04-03T04:56:13;8.80;;;2.73;;
29246;SDS011;16272;48.188;9.964;2023-04-03T04:58:38;8.35;;;2.83;;
29246;SDS011;16272;48.188;9.964;2023-04-03T05:01:07;8.17;;;2.67;;
29246;SDS011;16272;48.188;9.964;2023-04-03T05:03:36;8.02;;;2.70;;
29246;SDS011;16272;48.188;9.964;2023-04-03T05:06:02;8.10;;;2.55;;
29246;SDS011;16272;48.188;9.964;2023-04-03T05:08:28;7.53;;;2.40;;
29246;SDS011;16272;48.188;9.964;2023-04-03T05:10:53;6.90;;;2.33;;
29246;SDS011;16272;48.188;9.964;2023-04-03T05:13:19;7.83;;;2.50;;
29246;SDS011;16272;48.188;9.964;2023-04-03T05:15:45;7.97;;;2.70;;
29246;SDS011;16272;48.188;9.964;2023-04-03T05:18:12;7.65;;;2.35;;
29246;SDS011;16272;48.188;9.964;2023-04-03T05:20:37;8.47;;;2.70;;
29246;SDS011;16272;48.188;9.964;2023-04-03T05:23:03;7.50;;;2.40;;
29246;SDS011;16272;48.188;9.964;2023-04-03T05:25:28;7.70;;;2.70;;
29246;SDS011;16272;48.188;9.964;2023-04-03T05:27:53;8.23;;;3.10;;
29246;SDS011;16272;48.188;9.964;2023-04-03T05:30:26;8.27;;;2.53;;
29246;SDS011;16272;48.188;9.964;2023-04-03T05:32:51;7.90;;;2.60;;
29246;SDS011;16272;48.188;9.964;2023-04-03T05:35:16;8.07;;;2.40;;
29246;SDS011;16272;48.188;9.964;2023-04-03T05:37:42;7.70;;;2.50;;
29246;SDS011;16272;48.188;9.964;2023-04-03T05:40:07;7.33;;;2.80;;
29246;SDS011;16272;48.188;9.964;2023-04-03T05:42:33;7.97;;;2.75;;
29246;SDS011;16272;48.188;9.964;2023-04-03T05:44:58;8.40;;;2.60;;
29246;SDS011;16272;48.188;9.964;2023-04-03T05:47:24;6.95;;;2.33;;
29246;SDS011;16272;48.188;9.964;2023-04-03T05:49:49;7.60;;;3.00;;
29246;SDS011;16272;48.188;9.964;2023-04-03T05:54:48;7.53;;;2.75;;
29246;SDS011;16272;48.188;9.964;2023-04-03T05:57:15;8.63;;;2.90;;
29246;SDS011;16272;48.188;9.964;2023-04-03T05:59:41;7.77;;;2.83;;
29246;SDS011;16272;48.188;9.964;2023-04-03T06:02:14;7.68;;;2.53;;
29246;SDS011;16272;48.188;9.964;2023-04-03T06:04:41;7.55;;;2.50;;
29246;SDS011;16272;48.188;9.964;2023-04-03T06:07:07;7.90;;;2.77;;
29246;SDS011;16272;48.188;9.964;2023-04-03T06:09:36;8.52;;;2.72;;
29246;SDS011;16272;48.188;9.964;2023-04-03T06:12:02;8.50;;;2.87;;
29246;SDS011;16272;48.188;9.964;2023-04-03T06:14:27;8.60;;;2.97;;
29246;SDS011;16272;48.188;9.964;2023-04-03T06:16:52;8.73;;;3.00;;
29246;SDS011;16272;48.188;9.964;2023-04-03T06:19:20;7.20;;;2.55;;
29246;SDS011;16272;48.188;9.964;2023-04-03T06:21:45;8.13;;;2.90;;
29246;SDS011;16272;48.188;9.964;2023-04-03T06:24:12;7.65;;;2.85;;
29246;SDS011;16272;48.188;9.964;2023-04-03T06:26:40;9.40;;;3.00;;
29246;SDS011;16272;48.188;9.964;2023-04-03T06:29:06;7.43;;;2.27;;
29246;SDS011;16272;48.188;9.964;2023-04-03T06:31:32;8.30;;;2.97;;
29246;SDS011;16272;48.188;9.964;2023-04-03T06:33:57;7.00;;;2.20;;
29246;SDS011;16272;48.188;9.964;2023-04-03T06:36:30;7.17;;;2.70;;
29246;SDS011;16272;48.188;9.964;2023-04-03T06:38:56;7.30;;;2.72;;
29246;SDS011;16272;48.188;9.964;2023-04-03T06:41:22;9.30;;;3.13;;
29246;SDS011;16272;48.188;9.964;2023-04-03T06:43:47;8.63;;;3.00;;
29246;SDS011;16272;48.188;9.964;2023-04-03T06:46:16;5.40;;;1.73;;
29246;SDS011;16272;48.188;9.964;2023-04-03T06:48:43;5.68;;;2.08;;
29246;SDS011;16272;48.188;9.964;2023-04-03T06:53:59;7.68;;;2.67;;
29246;SDS011;16272;48.188;9.964;2023-04-03T06:56:25;7.60;;;2.53;;
29246;SDS011;16272;48.188;9.964;2023-04-03T06:58:51;6.90;;;2.55;;
29246;SDS011;16272;48.188;9.964;2023-04-03T07:01:19;6.97;;;2.45;;
29246;SDS011;16272;48.188;9.964;2023-04-03T07:03:45;6.35;;;2.17;;
29246;SDS011;16272;48.188;9.964;2023-04-03T07:06:13;6.43;;;2.35;;
29246;SDS011;16272;48.188;9.964;2023-04-03T07:08:46;7.30;;;2.77;;
29246;SDS011;16272;48.188;9.964;2023-04-03T07:11:13;7.38;;;2.80;;
29246;SDS011;16272;48.188;9.964;2023-04-03T07:13:38;7.18;;;2.75;;
29246;SDS011;16272;48.188;9.964;2023-04-03T07:16:05;7.40;;;2.40;;
29246;SDS011;16272;48.188;9.964;2023-04-03T07:18:31;6.63;;;2.42;;
29246;SDS011;16272;48.188;9.964;2023-04-03T07:20:57;7.60;;;2.53;;
29246;SDS011;16272;48.188;9.964;2023-04-03T07:23:23;6.73;;;2.30;;
29246;SDS011;16272;48.188;9.964;2023-04-03T07:25:49;6.90;;;2.47;;
29246;SDS011;16272;48.188;9.964;2023-04-03T07:28:17;8.18;;;2.72;;
29246;SDS011;16272;48.188;9.964;2023-04-03T07:33:10;7.07;;;2.35;;
29246;SDS011;16272;48.188;9.964;2023-04-03T07:35:36;8.23;;;2.83;;
29246;SDS011;16272;48.188;9.964;2023-04-03T07:38:03;7.57;;;2.83;;
29246;SDS011;16272;48.188;9.964;2023-04-03T07:40:28;7.45;;;2.88;;
29246;SDS011;16272;48.188;9.964;2023-04-03T07:42:54;8.57;;;3.30;;
29246;SDS011;16272;48.188;9.964;2023-04-03T07:45:21;8.40;;;3.10;;
29246;SDS011;16272;48.188;9.964;2023-04-03T07:47:47;8.27;;;3.10;;
29246;SDS011;16272;48.188;9.964;2023-04-03T07:50:13;9.20;;;2.85;;
29246;SDS011;16272;48.188;9.964;2023-04-03T07:52:39;8.50;;;2.80;;
29246;SDS011;16272;48.188;9.964;2023-04-03T07:55:06;7.75;;;2.58;;
29246;SDS011;16272;48.188;9.964;2023-04-03T07:57:32;9.00;;;3.00;;
29246;SDS011;16272;48.188;9.964;2023-04-03T07:59:57;8.13;;;3.10;;
29246;SDS011;16272;48.188;9.964;2023-04-03T08:02:22;8.75;;;3.53;;
29246;SDS011;16272;48.188;9.964;2023-04-03T08:04:48;8.80;;;3.33;;
29246;SDS011;16272;48.188;9.964;2023-04-03T08:07:13;8.17;;;2.77;;
29246;SDS011;16272;48.188;9.964;2023-04-03T08:09:39;7.87;;;3.40;;
29246;SDS011;16272;48.188;9.964;2023-04-03T08:12:04;8.15;;;3.10;;
29246;SDS011;16272;48.188;9.964;2023-04-03T08:14:33;9.30;;;3.53;;
29246;SDS011;16272;48.188;9.964;2023-04-03T08:17:01;9.18;;;3.00;;
29246;SDS011;16272;48.188;9.964;2023-04-03T08:19:29;8.15;;;3.45;;
29246;SDS011;16272;48.188;9.964;2023-04-03T08:21:55;8.77;;;3.40;;
29246;SDS011;16272;48.188;9.964;2023-04-03T08:24:21;8.52;;;3.42;;
29246;SDS011;16272;48.188;9.964;2023-04-03T08:26:47;8.37;;;3.47;;
29246;SDS011;16272;48.188;9.964;2023-04-03T08:29:14;8.23;;;3.43;;
29246;SDS011;16272;48.188;9.964;2023-04-03T08:31:39;7.67;;;2.67;;
29246;SDS011;16272;48.188;9.964;2023-04-03T08:34:05;8.53;;;3.23;;
29246;SDS011;16272;48.188;9.964;2023-04-03T08:36:30;7.93;;;3.33;;
29246;SDS011;16272;48.188;9.964;2023-04-03T08:38:55;8.27;;;3.13;;
29246;SDS011;16272;48.188;9.964;2023-04-03T08:43:56;8.87;;;2.93;;
29246;SDS011;16272;48.188;9.964;2023-04-03T08:46:35;8.63;;;3.50;;
29246;SDS011;16272;48.188;9.964;2023-04-03T08:49:11;10.02;;;3.17;;
29246;SDS011;16272;48.188;9.964;2023-04-03T08:51:48;9.45;;;3.35;;
29246;SDS011;16272;48.188;9.964;2023-04-03T08:54:24;7.63;;;2.83;;
29246;SDS011;16272;48.188;9.964;2023-04-03T08:57:03;8.07;;;3.33;;
29246;SDS011;16272;48.188;9.964;2023-04-03T08:59:32;6.85;;;2.83;;
29246;SDS011;16272;48.188;9.964;2023-04-03T09:02:01;8.38;;;3.03;;
29246;SDS011;16272;48.188;9.964;2023-04-03T09:04:32;7.85;;;2.70;;
29246;SDS011;16272;48.188;9.964;2023-04-03T09:07:02;6.93;;;3.20;;
29246;SDS011;16272;48.188;9.964;2023-04-03T09:09:36;7.63;;;2.47;;
29246;SDS011;16272;48.188;9.964;2023-04-03T09:20:39;8.45;;;2.95;;
29246;SDS011;16272;48.188;9.964;2023-04-03T09:23:18;6.80;;;2.53;;
29246;SDS011;16272;48.188;9.964;2023-04-03T09:25:47;7.25;;;2.92;;
29246;SDS011;16272;48.188;9.964;2023-04-03T09:28:15;6.22;;;2.15;;
29246;SDS011;16272;48.188;9.964;2023-04-03T09:30:43;7.80;;;2.57;;
29246;SDS011;16272;48.188;9.964;2023-04-03T09:33:08;6.95;;;2.42;;
29246;SDS011;16272;48.188;9.964;2023-04-03T09:35:36;6.97;;;2.40;;
29246;SDS011;16272;48.188;9.964;2023-04-03T09:43:28;8.07;;;3.03;;
29246;SDS011;16272;48.188;9.964;2023-04-03T09:45:56;7.15;;;3.03;;
29246;SDS011;16272;48.188;9.964;2023-04-03T09:48:50;7.20;;;2.63;;
29246;SDS011;16272;48.188;9.964;2023-04-03T09:51:16;7.75;;;3.25;;
29246;SDS011;16272;48.188;9.964;2023-04-03T09:53:43;7.27;;;2.80;;
29246;SDS011;16272;48.188;9.964;2023-04-03T09:58:42;6.53;;;2.50;;
29246;SDS011;16272;48.188;9.964;2023-04-03T10:01:27;6.68;;;2.08;;
29246;SDS011;16272;48.188;9.964;2023-04-03T10:06:34;8.10;;;2.75;;
29246;SDS011;16272;48.188;9.964;2023-04-03T10:09:03;8.82;;;3.40;;
29246;SDS011;16272;48.188;9.964;2023-04-03T10:11:32;7.88;;;2.88;;
29246;SDS011;16272;48.188;9.964;2023-04-03T10:13:58;8.67;;;3.27;;
29246;SDS011;16272;48.188;9.964;2023-04-03T10:16:41;8.15;;;2.92;;
29246;SDS011;16272;48.188;9.964;2023-04-03T10:19:31;6.55;;;2.53;;
29246;SDS011;16272;48.188;9.964;2023-04-03T10:22:03;6.38;;;2.35;;
29246;SDS011;16272;48.188;9.964;2023-04-03T10:24:48;6.78;;;2.80;;
29246;SDS011;16272;48.188;9.964;2023-04-03T10:35:53;6.97;;;2.83;;
29246;SDS011;16272;48.188;9.964;2023-04-03T10:38:51;7.00;;;3.35;;
29246;SDS011;16272;48.188;9.964;2023-04-03T10:41:49;6.80;;;3.00;;
29246;SDS011;16272;48.188;9.964;2023-04-03T10:44:36;9.57;;;3.30;;
29246;SDS011;16272;48.188;9.964;2023-04-03T10:49:50;9.02;;;3.40;;
29246;SDS011;16272;48.188;9.964;2023-04-03T10:57:25;8.82;;;3.50;;
29246;SDS011;16272;48.188;9.964;2023-04-03T11:02:28;7.25;;;2.97;;
29246;SDS011;16272;48.188;9.964;2023-04-03T11:05:04;8.73;;;2.97;;
29246;SDS011;16272;48.188;9.964;2023-04-03T11:07:47;6.70;;;2.47;;
29246;SDS011;16272;48.188;9.964;2023-04-03T11:10:21;6.88;;;2.80;;
29246;SDS011;16272;48.188;9.964;2023-04-03T11:13:10;6.80;;;2.50;;
29246;SDS011;16272;48.188;9.964;2023-04-03T11:15:38;8.32;;;2.80;;
29246;SDS011;16272;48.188;9.964;2023-04-03T11:20:42;7.38;;;2.72;;
29246;SDS011;16272;48.188;9.964;2023-04-03T11:26:08;7.25;;;2.83;;
29246;SDS011;16272;48.188;9.964;2023-04-03T11:28:52;7.43;;;2.75;;
29246;SDS011;16272;48.188;9.964;2023-04-03T11:36:34;6.50;;;2.60;;
29246;SDS011;16272;48.188;9.964;2023-04-03T11:39:10;7.60;;;2.83;;
29246;SDS011;16272;48.188;9.964;2023-04-03T11:42:34;7.35;;;2.75;;
29246;SDS011;16272;48.188;9.964;2023-04-03T11:53:44;7.90;;;2.75;;
29246;SDS011;16272;48.188;9.964;2023-04-03T11:58:24;8.40;;;3.40;;
29246;SDS011;16272;48.188;9.964;2023-04-03T12:05:48;7.28;;;2.60;;
29246;SDS011;16272;48.188;9.964;2023-04-03T12:14:16;8.07;;;2.60;;
29246;SDS011;16272;48.188;9.964;2023-04-03T12:16:43;6.70;;;3.00;;
29246;SDS011;16272;48.188;9.964;2023-04-03T12:45:50;7.65;;;3.10;;
29246;SDS011;16272;48.188;9.964;2023-04-03T12:48:29;7.70;;;3.20;;
29246;SDS011;16272;48.188;9.964;2023-04-03T12:50:57;7.28;;;3.53;;
29246;SDS011;16272;48.188;9.964;2023-04-03T12:53:28;6.25;;;2.63;;
29246;SDS011;16272;48.188;9.964;2023-04-03T12:56:18;7.43;;;2.63;;
29246;SDS011;16272;48.188;9.964;2023-04-03T12:58:44;6.10;;;2.58;;
29246;SDS011;16272;48.188;9.964;2023-04-03T13:01:10;7.17;;;2.70;;
29246;SDS011;16272;48.188;9.964;2023-04-03T13:03:57;7.78;;;2.70;;
29246;SDS011;16272;48.188;9.964;2023-04-03T13:06:26;7.20;;;2.50;;
29246;SDS011;16272;48.188;9.964;2023-04-03T13:08:56;7.55;;;2.50;;
29246;SDS011;16272;48.188;9.964;2023-04-03T13:11:27;7.65;;;2.75;;
29246;SDS011;16272;48.188;9.964;2023-04-03T13:13:59;6.78;;;2.30;;
29246;SDS011;16272;48.188;9.964;2023-04-03T13:16:25;6.53;;;2.60;;
29246;SDS011;16272;48.188;9.964;2023-04-03T13:18:54;7.17;;;2.40;;
29246;SDS011;16272;48.188;9.964;2023-04-03T13:21:31;7.20;;;2.78;;
29246;SDS011;16272;48.188;9.964;2023-04-03T13:24:00;7.82;;;2.90;;
29246;SDS011;16272;48.188;9.964;2023-04-03T13:26:29;6.70;;;2.58;;
29246;SDS011;16272;48.188;9.964;2023-04-03T13:28:57;7.55;;;2.78;;
29246;SDS011;16272;48.188;9.964;2023-04-03T13:31:29;6.20;;;2.60;;
29246;SDS011;16272;48.188;9.964;2023-04-03T13:33:59;6.55;;;2.13;;
29246;SDS011;16272;48.188;9.964;2023-04-03T13:36:40;6.80;;;2.65;;
29246;SDS011;16272;48.188;9.964;2023-04-03T13:41:36;6.63;;;2.30;;
29246;SDS011;16272;48.188;9.964;2023-04-03T13:46:50;6.50;;;2.43;;
29246;SDS011;16272;48.188;9.964;2023-04-03T13:49:18;8.30;;;2.78;;
29246;SDS011;16272;48.188;9.964;2023-04-03T13:52:01;6.90;;;2.38;;
29246;SDS011;16272;48.188;9.964;2023-04-03T13:54:52;7.30;;;2.75;;
29246;SDS011;16272;48.188;9.964;2023-04-03T13:57:21;7.50;;;2.30;;
29246;SDS011;16272;48.188;9.964;2023-04-03T13:59:47;6.87;;;2.70;;
29246;SDS011;16272;48.188;9.964;2023-04-03T14:02:18;7.63;;;2.28;;
29246;SDS011;16272;48.188;9.964;2023-04-03T14:04:55;6.90;;;2.28;;
29246;SDS011;16272;48.188;9.964;2023-04-03T14:09:56;7.20;;;2.60;;
29246;SDS011;16272;48.188;9.964;2023-04-03T14:12:32;7.47;;;2.60;;
29246;SDS011;16272;48.188;9.964;2023-04-03T14:15:01;7.00;;;2.75;;
29246;SDS011;16272;48.188;9.964;2023-04-03T14:17:28;8.23;;;2.78;;
29246;SDS011;16272;48.188;9.964;2023-04-03T14:19:54;6.67;;;2.43;;
29246;SDS011;16272;48.188;9.964;2023-04-03T14:22:24;6.63;;;2.55;;
29246;SDS011;16272;48.188;9.964;2023-04-03T14:25:01;7.40;;;2.53;;
29246;SDS011;16272;48.188;9.964;2023-04-03T14:27:33;10.73;;;2.63;;
29246;SDS011;16272;48.188;9.964;2023-04-03T14:30:02;6.93;;;2.53;;
29246;SDS011;16272;48.188;9.964;2023-04-03T14:32:29;7.83;;;2.70;;
29246;SDS011;16272;48.188;9.964;2023-04-03T14:34:55;6.90;;;2.67;;
29246;SDS011;16272;48.188;9.964;2023-04-03T14:37:24;7.80;;;2.72;;
29246;SDS011;16272;48.188;9.964;2023-04-03T14:39:54;7.30;;;2.90;;
29246;SDS011;16272;48.188;9.964;2023-04-03T14:42:24;7.33;;;2.53;;
29246;SDS011;16272;48.188;9.964;2023-04-03T14:44:52;8.25;;;2.70;;
29246;SDS011;16272;48.188;9.964;2023-04-03T14:47:24;7.13;;;2.80;;
29246;SDS011;16272;48.188;9.964;2023-04-03T14:49:51;6.40;;;2.70;;
29246;SDS011;16272;48.188;9.964;2023-04-03T14:52:21;7.00;;;2.72;;
29246;SDS011;16272;48.188;9.964;2023-04-03T14:55:06;7.50;;;2.70;;
29246;SDS011;16272;48.188;9.964;2023-04-03T14:57:32;6.68;;;2.20;;
29246;SDS011;16272;48.188;9.964;2023-04-03T14:59:58;6.50;;;1.95;;
29246;SDS011;16272;48.188;9.964;2023-04-03T15:02:25;5.73;;;1.87;;
29246;SDS011;16272;48.188;9.964;2023-04-03T15:04:51;7.13;;;2.47;;
29246;SDS011;16272;48.188;9.964;2023-04-03T15:07:16;6.45;;;2.47;;
29246;SDS011;16272;48.188;9.964;2023-04-03T15:09:42;6.77;;;2.23;;
29246;SDS011;16272;48.188;9.964;2023-04-03T15:12:08;7.73;;;2.70;;
29246;SDS011;16272;48.188;9.964;2023-04-03T15:14:34;6.30;;;2.13;;
29246;SDS011;16272;48.188;9.964;2023-04-03T15:16:59;7.03;;;2.60;;
29246;SDS011;16272;48.188;9.964;2023-04-03T15:19:25;6.20;;;2.47;;
29246;SDS011;16272;48.188;9.964;2023-04-03T15:21:50;5.20;;;1.90;;
29246;SDS011;16272;48.188;9.964;2023-04-03T15:24:16;5.68;;;1.88;;
29246;SDS011;16272;48.188;9.964;2023-04-03T15:26:41;6.83;;;2.40;;
29246;SDS011;16272;48.188;9.964;2023-04-03T15:29:06;7.57;;;2.90;;
29246;SDS011;16272;48.188;9.964;2023-04-03T15:31:32;7.23;;;2.60;;
29246;SDS011;16272;48.188;9.964;2023-04-03T15:33:57;6.40;;;2.30;;
29246;SDS011;16272;48.188;9.964;2023-04-03T15:36:23;7.32;;;2.30;;
29246;SDS011;16272;48.188;9.964;2023-04-03T15:38:48;6.87;;;2.50;;
29246;SDS011;16272;48.188;9.964;2023-04-03T15:41:13;8.13;;;2.20;;
29246;SDS011;16272;48.188;9.964;2023-04-03T15:43:40;6.53;;;2.00;;
29246;SDS011;16272;48.188;9.964;2023-04-03T15:46:05;7.00;;;1.85;;
29246;SDS011;16272;48.188;9.964;2023-04-03T15:48:31;6.90;;;1.80;;
29246;SDS011;16272;48.188;9.964;2023-04-03T15:50:57;6.97;;;2.00;;
29246;SDS011;16272;48.188;9.964;2023-04-03T15:53:22;5.40;;;1.83;;
29246;SDS011;16272;48.188;9.964;2023-04-03T15:55:48;7.70;;;2.55;;
29246;SDS011;16272;48.188;9.964;2023-04-03T15:58:30;7.13;;;2.20;;
29246;SDS011;16272;48.188;9.964;2023-04-03T16:00:59;6.10;;;2.30;;
29246;SDS011;16272;48.188;9.964;2023-04-03T16:03:25;5.87;;;2.03;;
29246;SDS011;16272;48.188;9.964;2023-04-03T16:05:51;7.05;;;2.00;;
29246;SDS011;16272;48.188;9.964;2023-04-03T16:08:18;8.07;;;2.30;;
29246;SDS011;16272;48.188;9.964;2023-04-03T16:10:43;7.95;;;2.13;;
29246;SDS011;16272;48.188;9.964;2023-04-03T16:13:10;7.10;;;2.10;;
29246;SDS011;16272;48.188;9.964;2023-04-03T16:15:36;6.40;;;1.90;;
29246;SDS011;16272;48.188;9.964;2023-04-03T16:18:02;6.90;;;2.53;;
29246;SDS011;16272;48.188;9.964;2023-04-03T16:20:28;6.20;;;1.80;;
29246;SDS011;16272;48.188;9.964;2023-04-03T16:22:53;6.23;;;1.90;;
29246;SDS011;16272;48.188;9.964;2023-04-03T16:25:21;6.35;;;1.83;;
29246;SDS011;16272;48.188;9.964;2023-04-03T16:27:46;6.77;;;2.00;;
29246;SDS011;16272;48.188;9.964;2023-04-03T16:30:11;5.83;;;1.83;;
29246;SDS011;16272;48.188;9.964;2023-04-03T16:32:39;6.53;;;1.87;;
29246;SDS011;16272;48.188;9.964;2023-04-03T16:35:11;7.07;;;2.20;;
29246;SDS011;16272;48.188;9.964;2023-04-03T16:37:37;5.80;;;1.80;;
29246;SDS011;16272;48.188;9.964;2023-04-03T16:40:10;8.30;;;2.15;;
29246;SDS011;16272;48.188;9.964;2023-04-03T16:42:37;5.68;;;2.00;;
29246;SDS011;16272;48.188;9.964;2023-04-03T16:45:02;5.77;;;2.00;;
29246;SDS011;16272;48.188;9.964;2023-04-03T16:47:29;5.97;;;1.67;;
29246;SDS011;16272;48.188;9.964;2023-04-03T16:49:55;7.30;;;2.30;;
29246;SDS011;16272;48.188;9.964;2023-04-03T16:52:20;6.47;;;2.00;;
29246;SDS011;16272;48.188;9.964;2023-04-03T16:54:48;6.30;;;1.80;;